Denali National Park, AK

9:44 PM AKDT on September 24, 2016 (GMT -0800)
Minchumina | | Change Station

Elev 702 ft 63.89 °N, 152.30 °W | Updated 48 minutes ago

Light Rain
Light Rain
38 °F
Feels Like 38 °F
N
0
Wind Variable Wind from North

Today
High -- | Low -- °F
--% Chance of Precip.
Yesterday
High -- | Low -- °F
Precip. -- in
Pressure 29.83 in
Visibility 10.0 miles
Clouds Overcast 1100 ft
Dew Point 37 °F
Humidity 97%
Rainfall 0.31 in
Snow Depth Not available.
7:54 AM 7:54 PM
Waning Crescent, 31% visible
METAR PAMH 250456Z AUTO 00000KT 10SM -RA OVC011 03/03 A2977 RMK AO2 SLP100 P0000 T00330028
Pressure 29.83 in
Visibility 10.0 miles
Clouds Overcast 1100 ft
Dew Point 37 °F
Humidity 97%
Rainfall 0.31 in
Snow Depth Not available.
7:54 AM 7:54 PM
Waning Crescent, 31% visible
METAR PAMH 250456Z AUTO 00000KT 10SM -RA OVC011 03/03 A2977 RMK AO2 SLP100 P0000 T00330028

10-Day Weather Forecast

Almanac

Astronomy

Sep. 24, 2016 Rise Set
Actual Time
Civil Twilight
Nautical Twilight
Astronomical Twilight
Moon
Length of Visible Light
Length of Day
Tomorrow will be .
, % of the Moon is Illuminated

Today's Extremes

State Highs State Lows

Community

WunderPhotos

Upload Photos

1,941,554 photos uploaded!

WunderBlog® & News

Nearby

Air Quality

  Air Quality AQ Index Pollutant
Not available.

Snow Depth

Station Depth Elevation

Earthquake Activity

City Distance Mag. Time & Date
Minimum magnitude displayed is 2.5.

Coastal Water Temperatures

Place Temperature

Stations

Nearby Weather Stations

Station Location Temp. Windchill Dew Point Humidity Wind Precip. Elev Updated Type
                   

Watches & Warnings

There are currently no watches in effect.